Latest Coastal Weather Observations for Cerberus

IDV60701

Issued at 6:41 pm EST Tuesday 27 September 2016 (issued every 10 minutes, with the page automatically refreshed every 10 minutes)

About coastal observations | Map of coastal stations | Coastal observations for VIC | Marine services | Other Formats
Station Details ID: 086361 Name: CERBERUS Lat: -38.36 Lon: 145.18 Height: 12.69 m
Data from the previous 72 hours. | See also: Recent months at Cerberus
Date/Time
EST
Temp
°C
Wind Pressure Rain since
9am
mm
Weather Cloud Vis
km
Sea
Height
m
Swell
Dir  Spd
kts
Gust
kts
hPa Trend Height
m
Period
s
Dir
27/06:30pm 11.0 WSW 3 4 1012.8 - 0.6 - - - - - - -
27/06:00pm 12.0 SW 6 7 1012.7 - 0.6 - - - - - - -
27/05:30pm 12.8 SW 7 10 1012.4 - 0.6 - - - - - - -
27/05:00pm 13.4 SW 6 8 1012.1 - 0.6 - - - - - - -
27/04:30pm 14.2 WSW 6 10 1011.9 - 0.6 - - - - - - -
27/04:00pm 13.1 WSW 7 11 1011.7 - 0.6 - - - - - - -
27/03:30pm 13.0 WSW 7 12 1011.5 - 0.6 - - - - - - -
27/03:00pm 11.5 WSW 9 15 1011.7 - 0.4 Recent precip. - - - - - -
27/02:30pm 12.4 SW 7 12 1011.5 - 0.0 - - - - - - -
27/02:00pm 13.9 W 7 12 1011.3 - 0.0 - - - - - - -
27/01:30pm 14.0 WNW 9 13 1011.2 - 0.0 - - - - - - -
27/01:00pm 14.2 WNW 7 13 1011.2 - 0.0 - - - - - - -
27/12:30pm 13.8 WNW 7 10 1011.3 - 0.0 - - - - - - -
27/12:00pm 13.1 WNW 9 14 1011.4 - 0.0 - - - - - - -
27/11:30am 13.6 NW 8 13 1011.3 - 0.0 - - - - - - -
27/11:00am 13.0 NW 9 13 1011.4 - 0.0 - - - - - - -
27/10:30am 12.9 NW 7 12 1011.3 - 0.0 - - - - - - -
27/10:00am 12.8 WNW 8 13 1011.2 - 0.0 - - - - - - -
27/09:30am 11.9 WNW 9 13 1010.9 - 0.0 - - - - - - -
27/09:00am 10.9 NW 11 17 1010.9 - 4.2 - - - - - - -
27/08:30am 11.1 WNW 9 15 1010.5 - 4.2 - - - - - - -
27/08:00am 10.3 WNW 10 16 1010.3 - 4.2 - - - - - - -
27/07:30am 9.6 NW 9 14 1010.0 - 4.2 - - - - - - -
27/07:00am 8.6 WNW 7 11 1009.9 - 4.2 - - - - - - -
27/06:30am 8.3 WNW 6 12 1009.4 - 4.2 - - - - - - -
27/06:00am 8.2 WNW 6 10 1009.3 - 4.2 - - - - - - -
27/05:30am 8.1 WNW 7 11 1009.1 - 4.2 - - - - - - -
27/05:00am 8.0 WNW 7 11 1008.9 - 4.2 - - - - - - -
27/04:30am 8.1 WNW 7 12 1008.7 - 4.2 - - - - - - -
27/04:00am 8.4 WNW 9 13 1008.4 - 4.2 - - - - - - -
27/03:30am 8.5 WNW 7 11 1008.2 - 4.2 - - - - - - -
27/03:00am 8.8 WNW 7 12 1008.3 - 4.2 - - - - - - -
27/02:30am 8.6 WNW 7 9 1008.3 - 4.2 - - - - - - -
27/02:00am 8.0 NW 4 6 1008.7 - 4.2 - - - - - - -
27/01:30am 7.7 NNW 2 4 1008.9 - 4.2 - - - - - - -
27/01:00am 7.5 N 3 4 1009.1 - 4.2 - - - - - - -
27/12:30am 7.7 N 3 4 1009.3 - 4.2 - - - - - - -
27/12:00am 8.0 CALM 0 0 1009.4 - 4.2 - - - - - - -
 
Date/Time
EST
Temp
°C
Wind Pressure Rain since
9am
mm
Weather Cloud Vis
km
Sea
Height
m
Swell
Dir  Spd
kts
Gust
kts
hPa Trend Height
m
Period
s
Dir
26/11:30pm 8.0 N 2 3 1009.5 - 4.2 - - - - - - -
26/11:00pm 8.0 N 2 3 1009.8 - 4.2 - - - - - - -
26/10:30pm 8.4 WNW 5 9 1010.1 - 3.6 - - - - - - -
26/10:00pm 8.5 WNW 10 18 1010.4 - 3.0 - - - - - - -
26/09:30pm 8.6 W 8 13 1010.3 - 2.0 - - - - - - -
26/09:00pm 9.5 W 9 16 1010.2 - 1.8 Rain - - - - - -
26/08:30pm 10.5 NW 2 3 1009.9 - 0.4 - - - - - - -
26/08:00pm 10.7 N 2 3 1009.7 - 0.2 - - - - - - -
26/07:30pm 11.5 NW 5 9 1009.5 - 0.2 - - - - - - -
26/07:00pm 13.1 N 3 5 1008.9 - 0.0 - - - - - - -
26/06:30pm 13.2 N 2 3 1008.7 - 0.0 - - - - - - -
26/06:00pm 13.5 NNW 2 3 1008.6 - 0.0 - - - - - - -
26/05:30pm 14.1 N 3 5 1008.5 - 0.0 - - - - - - -
26/05:00pm 14.6 NNW 2 3 1008.5 - 0.0 - - - - - - -
26/04:30pm 13.6 NNW 7 13 1008.9 - 0.0 - - - - - - -
26/04:00pm 15.4 NW 6 9 1008.7 - 0.0 - - - - - - -
26/03:30pm 16.4 WNW 7 11 1008.7 - 0.0 - - - - - - -
26/03:00pm 16.6 NW 7 12 1009.0 - 0.0 - - - - - - -
26/02:30pm 16.6 NW 6 11 1009.3 - 0.0 - - - - - - -
26/02:00pm 16.0 NW 7 11 1009.7 - 0.0 - - - - - - -
26/01:30pm 15.6 NW 6 12 1009.8 - 0.0 - - - - - - -
26/01:00pm 15.8 WNW 7 12 1010.4 - 0.0 - - - - - - -
26/12:30pm 14.9 WNW 7 14 1010.9 - 0.0 - - - - - - -
26/12:00pm 15.2 NW 8 13 1011.3 - 0.0 - - - - - - -
26/11:30am 14.7 NW 9 13 1011.6 - 0.0 - - - - - - -
26/11:00am 14.0 NW 8 13 1011.9 - 0.0 - - - - - - -
26/10:30am 13.3 WNW 8 12 1012.3 - 0.0 - - - - - - -
26/10:00am 14.1 NNW 7 13 1012.4 - 0.0 - - - - - - -
26/09:30am 13.2 NNW 8 12 1012.6 - 0.0 - - - - - - -
26/09:00am 12.4 NNW 7 12 1012.5 - 0.2 - - - - - - -
26/08:30am 12.1 NNW 5 8 1012.6 - 0.2 - - - - - - -
26/08:00am 10.0 N 3 4 1012.8 - 0.2 - - - - - - -
26/07:30am 9.4 N 3 5 1012.9 - 0.2 - - - - - - -
26/07:00am 9.0 N 3 5 1013.0 - 0.2 - - - - - - -
26/06:30am 9.0 N 3 6 1012.9 - 0.2 - - - - - - -
26/06:00am 8.6 N 4 6 1012.7 - 0.2 - - - - - - -
26/05:30am 7.7 NNW 2 3 1012.7 - 0.2 - - - - - - -
26/05:00am 7.1 NNW 3 4 1012.7 - 0.2 - - - - - - -
26/04:30am 6.5 N 1 3 1012.6 - 0.2 - - - - - - -
26/04:00am 5.8 N 2 3 1012.6 - 0.2 - - - - - - -
26/03:30am 4.9 NW 2 3 1012.7 - 0.2 - - - - - - -
26/03:00am 4.8 NW 2 2 1012.6 - 0.2 - - - - - - -
26/02:30am 4.7 NW 2 3 1013.1 - 0.2 - - - - - - -
26/02:00am 4.3 CALM 0 0 1013.3 - 0.2 - - - - - - -
26/01:30am 4.7 NW 1 1 1013.5 - 0.2 - - - - - - -
26/01:00am 4.9 CALM 0 0 1013.4 - 0.2 - - - - - - -
26/12:30am 5.0 NW 1 3 1013.8 - 0.2 - - - - - - -
26/12:00am 5.4 CALM 0 1 1013.7 - 0.2 - - - - - - -
 
Date/Time
EST
Temp
°C
Wind Pressure Rain since
9am
mm
Weather Cloud Vis
km
Sea
Height
m
Swell
Dir  Spd
kts
Gust
kts
hPa Trend Height
m
Period
s
Dir
25/11:30pm 5.7 NW 2 2 1013.8 - 0.2 - - - - - - -
25/11:00pm 6.0 NW 1 2 1014.1 - 0.2 - - - - - - -
25/10:30pm 7.1 NW 4 5 1014.4 - 0.2 - - - - - - -
25/10:00pm 6.9 NW 2 3 1014.4 - 0.2 - - - - - - -
25/09:30pm 7.5 NW 3 4 1014.4 - 0.2 - - - - - - -
25/09:00pm 8.3 CALM 0 1 1014.3 - 0.2 - - - - - - -
25/08:30pm 9.2 NW 1 2 1014.2 - 0.2 - - - - - - -
25/08:00pm 10.2 WSW 2 3 1014.0 - 0.2 - - - - - - -
25/07:30pm 10.2 SW 4 5 1013.5 - 0.2 - - - - - - -
25/07:00pm 10.4 SSW 4 8 1012.9 - 0.2 - - - - - - -
25/06:30pm 10.5 SW 3 5 1012.5 - 0.2 - - - - - - -
25/06:00pm 11.2 SW 5 7 1012.3 - 0.2 - - - - - - -
25/05:30pm 11.8 SW 6 10 1012.1 - 0.2 - - - - - - -
25/05:00pm 12.3 SSW 7 11 1011.9 - 0.2 - - - - - - -
25/04:30pm 12.2 SW 8 13 1011.8 - 0.2 - - - - - - -
25/04:00pm 13.1 SW 10 15 1011.7 - 0.2 - - - - - - -
25/03:30pm 12.9 SW 9 14 1011.5 - 0.2 - - - - - - -
25/03:00pm 12.7 SW 10 14 1011.7 - 0.2 - - - - - - -
25/02:30pm 13.3 SW 10 16 1011.4 - 0.2 - - - - - - -
25/02:00pm 13.2 SW 10 18 1011.4 - 0.2 - - - - - - -
25/01:30pm 12.4 WSW 8 15 1011.5 - 0.2 - - - - - - -
25/01:00pm 11.2 W 10 17 1011.7 - 0.0 - - - - - - -
25/12:30pm 12.6 WSW 11 16 1011.5 - 0.0 - - - - - - -
25/12:00pm 14.1 WSW 12 21 1011.2 - 0.0 - - - - - - -
25/11:30am 13.2 SW 11 18 1011.2 - 0.0 - - - - - - -
25/11:00am 13.3 WSW 12 16 1011.1 - 0.0 - - - - - - -
25/10:30am 14.6 WSW 10 18 1010.9 - 0.0 - - - - - - -
25/10:00am 12.9 WSW 12 16 1010.8 - 0.0 - - - - - - -
25/09:30am 12.6 W 10 16 1010.6 - 0.0 - - - - - - -
25/09:00am 12.2 W 9 17 1010.2 - 3.0 - - - - - - -
25/08:30am 12.3 WNW 8 13 1009.9 - 3.0 - - - - - - -
25/08:00am 11.4 WNW 10 15 1009.6 - 3.0 - - - - - - -
25/07:30am 11.3 WNW 7 13 1009.2 - 3.0 - - - - - - -
25/07:00am 10.3 W 6 8 1009.0 - 3.0 - - - - - - -
25/06:30am 9.8 W 6 9 1008.6 - 3.0 - - - - - - -
25/06:00am 9.8 W 5 8 1008.1 - 3.0 - - - - - - -
25/05:30am 10.1 W 6 12 1007.9 - 3.0 - - - - - - -
25/05:00am 10.3 W 4 10 1007.6 - 3.0 - - - - - - -
25/04:30am 10.9 W 5 8 1007.2 - 3.0 - - - - - - -
25/04:00am 11.0 W 5 8 1006.9 - 3.0 - - - - - - -
25/03:30am 10.9 WSW 5 7 1006.4 - 3.0 - - - - - - -
25/03:00am 10.8 WSW 4 6 1006.4 - 3.0 Recent precip. - - - - - -
25/02:30am 11.3 WSW 6 10 1006.3 - 2.8 - - - - - - -
25/02:00am 11.3 WSW 6 10 1006.4 - 2.8 - - - - - - -
25/01:30am 12.2 NNW 5 11 1006.0 - 1.0 - - - - - - -
25/01:00am 12.0 NNW 3 5 1006.0 - 0.8 - - - - - - -
25/12:30am 11.9 N 4 7 1005.9 - 0.8 - - - - - - -
25/12:00am 12.1 N 5 9 1006.0 - 0.6 Rain - - - - - -
 
Date/Time
EST
Temp
°C
Wind Pressure Rain since
9am
mm
Weather Cloud Vis
km
Sea
Height
m
Swell
Dir  Spd
kts
Gust
kts
hPa Trend Height
m
Period
s
Dir
24/11:30pm 12.3 NW 6 11 1006.2 - 0.2 - - - - - - -
24/11:00pm 12.7 NW 10 16 1006.3 - 0.0 - - - - - - -
24/10:30pm 13.6 NW 6 11 1006.1 - 0.0 - - - - - - -
24/10:00pm 13.8 NNW 5 9 1006.0 - 0.0 - - - - - - -
24/09:30pm 14.1 NNW 8 15 1006.0 - 0.0 - - - - - - -
24/09:00pm 14.6 NNW 8 15 1006.1 - 0.0 - - - - - - -
24/08:30pm 15.0 NW 10 16 1006.2 - 0.0 - - - - - - -
24/08:00pm 15.3 NW 9 17 1006.2 - 0.0 - - - - - - -
24/07:30pm 15.7 NNW 7 13 1006.0 - 0.0 - - - - - - -
24/07:00pm 16.8 NNW 6 11 1005.7 - 0.0 - - - - - - -

Other Formats:

Comma delimited format used in spreadsheet applications
http://www.bom.gov.au/fwo/IDV60701/IDV60701.94898.axf

JavaScript Object Notation format (JSON) in row-major order
http://www.bom.gov.au/fwo/IDV60701/IDV60701.94898.json